Time;durP1;ratioP1;P1;durP2;ratioP2;P2;SDS_P1;SDS_P2;PMS_P1;PMS_P2;Temp;Humidity;BMP_temperature;BMP_pressure;BME280_temperature;BME280_humidity;BME280_pressure;Samples;Min_cycle;Max_cycle;Signal;HPM_P1;HPM_P2
2022/08/28 00:00:41;;;;;;;6.68;1.70;;;;;;;28.12;37.38;101310.31;5096744;28;20451;-50
2022/08/28 00:03:11;;;;;;;4.70;1.77;;;;;;;28.22;37.51;101320.00;5096847;28;20028;-49
2022/08/28 00:05:40;;;;;;;4.85;1.65;;;;;;;28.17;37.46;101317.38;5096444;28;20043;-50
2022/08/28 00:08:10;;;;;;;2.97;1.27;;;;;;;28.19;37.35;101322.63;5096592;28;20089;-48
2022/08/28 00:10:40;;;;;;;3.72;1.67;;;;;;;28.09;37.27;101313.78;5078239;28;20032;-49
2022/08/28 00:13:14;;;;;;;4.22;1.75;;;;;;;28.13;37.26;101312.09;5096696;28;20044;-48
2022/08/28 00:15:43;;;;;;;3.90;1.50;;;;;;;28.08;37.49;101316.44;5096687;28;20035;-46
2022/08/28 00:18:11;;;;;;;5.05;1.85;;;;;;;28.07;37.52;101318.19;5096555;28;20269;-47
2022/08/28 00:20:40;;;;;;;4.15;1.65;;;;;;;28.10;37.43;101322.63;5096508;28;20058;-47
2022/08/28 00:23:08;;;;;;;5.72;1.80;;;;;;;28.09;37.38;101313.78;5096529;28;20493;-48
2022/08/28 00:25:37;;;;;;;3.40;1.40;;;;;;;28.05;37.59;101315.56;5096436;28;20043;-48
2022/08/28 00:28:09;;;;;;;3.83;1.80;;;;;;;28.04;37.65;101315.56;5096310;28;20032;-48
2022/08/28 00:30:41;;;;;;;4.70;1.42;;;;;;;28.03;37.30;101314.66;5096667;28;20142;-50
2022/08/28 00:33:14;;;;;;;4.55;1.67;;;;;;;28.00;37.47;101316.44;5096312;28;20069;-48
2022/08/28 00:35:43;;;;;;;4.07;1.55;;;;;;;27.93;37.44;101312.00;5096161;28;20381;-47
2022/08/28 00:38:13;;;;;;;4.30;1.80;;;;;;;27.95;37.49;101319.06;5096289;28;20032;-47
2022/08/28 00:40:43;;;;;;;4.15;1.73;;;;;;;27.86;37.68;101306.75;5096125;28;20381;-46
2022/08/28 00:43:32;;;;;;;3.45;1.73;;;;;;;27.85;37.74;101304.09;5096162;28;20047;-47
2022/08/28 00:46:02;;;;;;;5.40;1.95;;;;;;;27.90;37.47;101307.63;5095966;28;20028;-47
2022/08/28 00:48:31;;;;;;;5.22;1.98;;;;;;;27.90;37.37;101320.81;5096230;28;20027;-48
2022/08/28 00:53:47;;;;;;;5.70;1.90;;;;;;;27.94;37.28;101312.03;5085109;28;20448;-50
2022/08/28 00:56:17;;;;;;;2.80;1.35;;;;;;;27.94;37.48;101313.78;5076686;28;20428;-47
2022/08/28 00:58:48;;;;;;;5.05;1.58;;;;;;;27.89;37.52;101321.69;5073912;28;20044;-47
2022/08/28 01:01:17;;;;;;;3.53;1.60;;;;;;;27.89;37.44;101316.41;5075372;28;20036;-50
2022/08/28 01:03:46;;;;;;;8.02;1.70;;;;;;;27.93;37.16;101314.66;5075055;28;20051;-50
2022/08/28 01:06:15;;;;;;;6.57;1.85;;;;;;;27.89;37.30;101311.13;5074074;28;20032;-46
2022/08/28 01:08:46;;;;;;;5.68;2.05;;;;;;;27.83;37.33;101322.56;5074505;28;20043;-46
2022/08/28 01:11:15;;;;;;;3.75;1.40;;;;;;;27.85;37.51;101315.53;5075117;28;20036;-52
2022/08/28 01:13:46;;;;;;;5.45;2.22;;;;;;;27.83;37.39;101316.38;5075298;28;20028;-48
2022/08/28 01:16:16;;;;;;;6.43;2.15;;;;;;;27.77;37.41;101322.53;5074020;28;20389;-48
2022/08/28 01:18:46;;;;;;;6.25;2.05;;;;;;;27.75;37.47;101319.00;5073816;28;20119;-47
2022/08/28 01:21:18;;;;;;;3.80;1.60;;;;;;;27.71;37.52;101315.47;5075373;28;20116;-48
2022/08/28 01:24:07;;;;;;;5.32;1.70;;;;;;;27.74;37.51;101311.97;5075124;28;20496;-49
2022/08/28 01:26:37;;;;;;;7.13;1.85;;;;;;;27.72;37.17;101319.88;5069028;28;20043;-50
2022/08/28 01:29:07;;;;;;;4.32;1.70;;;;;;;27.64;37.59;101305.78;5075620;28;20038;-47
2022/08/28 01:31:37;;;;;;;3.78;1.48;;;;;;;27.70;37.48;101316.34;5073598;28;20074;-50
2022/08/28 01:34:06;;;;;;;6.70;1.67;;;;;;;27.74;37.46;101312.88;5075017;28;20462;-50
2022/08/28 01:36:35;;;;;;;6.50;1.63;;;;;;;27.73;37.31;101308.47;5074995;28;20056;-50
2022/08/28 01:39:10;;;;;;;5.25;1.90;;;;;;;27.66;37.38;101311.94;5074618;28;20020;-49
2022/08/28 01:41:41;;;;;;;3.53;1.27;;;;;;;27.74;37.27;101314.59;5074005;28;20025;-49
2022/08/28 01:44:10;;;;;;;3.95;1.30;;;;;;;27.70;37.29;101313.72;5073576;28;20035;-49
2022/08/28 01:46:41;;;;;;;5.28;2.05;;;;;;;27.68;37.55;101314.59;5074665;28;20027;-49
2022/08/28 01:49:10;;;;;;;4.63;1.80;;;;;;;27.59;37.44;101318.09;5074679;28;20165;-49
2022/08/28 01:51:40;;;;;;;5.93;1.90;;;;;;;27.62;37.43;101318.09;5074279;28;20505;-51
2022/08/28 01:54:09;;;;;;;3.85;1.70;;;;;;;27.59;37.47;101326.00;5074488;28;20025;-47
2022/08/28 01:56:38;;;;;;;4.13;1.67;;;;;;;27.60;37.52;101319.84;5074417;28;20021;-48
2022/08/28 01:59:08;;;;;;;3.35;1.67;;;;;;;27.54;37.38;101307.53;5093543;28;20044;-49
2022/08/28 02:01:37;;;;;;;3.95;1.42;;;;;;;27.62;37.24;101314.56;5094609;28;20103;-50
2022/08/28 02:04:06;;;;;;;4.60;1.40;;;;;;;27.58;37.27;101311.06;5094212;28;20162;-48
2022/08/28 02:06:34;;;;;;;4.32;1.50;;;;;;;27.59;37.44;101315.47;5093971;28;20024;-47
2022/08/28 02:09:03;;;;;;;3.88;1.50;;;;;;;27.52;37.35;101316.28;5094256;28;20034;-47
2022/08/28 02:11:31;;;;;;;2.85;1.50;;;;;;;27.58;37.43;101313.69;5094428;28;20103;-47
2022/08/28 02:14:01;;;;;;;6.25;1.90;;;;;;;27.56;37.31;101311.03;5094001;28;20439;-47
2022/08/28 02:16:29;;;;;;;3.90;1.60;;;;;;;27.59;37.19;101315.47;5094161;28;20039;-48
2022/08/28 02:18:58;;;;;;;3.13;1.58;;;;;;;27.57;37.11;101314.56;5075876;28;20174;-47
2022/08/28 02:21:26;;;;;;;3.40;1.50;;;;;;;27.37;37.28;101307.44;5094353;28;20028;-47
2022/08/28 02:23:55;;;;;;;3.10;1.40;;;;;;;27.39;37.23;101310.97;5094095;28;20035;-49
2022/08/28 02:26:24;;;;;;;3.22;1.50;;;;;;;27.41;37.41;101311.84;5094053;28;20473;-50
2022/08/28 02:28:52;;;;;;;5.93;1.73;;;;;;;27.46;37.34;101308.41;5093788;28;20062;-46
2022/08/28 02:31:21;;;;;;;3.50;1.58;;;;;;;27.36;37.23;101296.91;5093704;28;20060;-46
2022/08/28 02:33:49;;;;;;;4.75;1.40;;;;;;;27.35;37.39;101309.19;5093886;28;20036;-50
2022/08/28 02:36:18;;;;;;;3.40;1.40;;;;;;;27.42;37.09;101304.81;5093690;28;20103;-50
2022/08/28 02:38:47;;;;;;;3.67;1.80;;;;;;;27.47;37.20;101312.78;5093625;28;20450;-51
2022/08/28 02:41:15;;;;;;;3.90;1.70;;;;;;;27.34;37.05;101307.41;5093722;28;20028;-47
2022/08/28 02:43:44;;;;;;;4.68;1.50;;;;;;;27.35;37.09;101308.31;5094207;28;20020;-47
2022/08/28 02:46:12;;;;;;;5.80;1.92;;;;;;;27.29;37.32;101302.13;5076151;28;20028;-47
2022/08/28 02:48:41;;;;;;;2.80;1.30;;;;;;;27.23;37.16;101303.88;5093501;28;20038;-48
2022/08/28 02:51:12;;;;;;;9.00;1.77;;;;;;;27.23;37.44;101304.72;5093832;28;20028;-47
2022/08/28 02:53:41;;;;;;;3.33;1.83;;;;;;;27.27;37.17;101303.00;5093910;28;20069;-47
2022/08/28 02:56:10;;;;;;;3.33;1.33;;;;;;;27.32;37.14;101314.44;5093833;28;20024;-48
2022/08/28 02:58:40;;;;;;;5.22;1.58;;;;;;;27.28;37.27;101300.38;5093115;28;20151;-50
2022/08/28 03:01:10;;;;;;;4.28;1.50;;;;;;;27.27;37.16;101308.28;5093717;28;20024;-51
2022/08/28 03:03:39;;;;;;;3.28;1.55;;;;;;;27.28;37.32;101304.78;5075548;28;20489;-48
2022/08/28 03:06:09;;;;;;;3.65;1.60;;;;;;;27.27;37.21;101310.91;5093346;28;20107;-49
2022/08/28 03:08:37;;;;;;;4.75;1.83;;;;;;;27.36;37.06;101316.22;5093263;28;20427;-47
2022/08/28 03:11:06;;;;;;;3.88;1.50;;;;;;;27.30;36.96;101306.53;5075067;28;20024;-49
2022/08/28 03:13:34;;;;;;;3.60;1.75;;;;;;;27.21;36.97;101293.34;5093230;28;20051;-49
2022/08/28 03:16:03;;;;;;;2.83;1.42;;;;;;;27.25;37.01;101305.63;5092967;28;20078;-50
2022/08/28 03:18:32;;;;;;;4.40;1.52;;;;;;;27.25;37.29;101297.72;5092703;28;20106;-51
2022/08/28 03:21:01;;;;;;;2.95;1.25;;;;;;;27.19;37.13;101300.34;5092936;28;20031;-51
2022/08/28 03:23:30;;;;;;;4.07;1.65;;;;;;;27.24;37.11;101310.88;5093437;28;20024;-51
2022/08/28 03:26:01;;;;;;;5.50;1.92;;;;;;;27.10;37.20;101314.34;5093370;28;20024;-50
2022/08/28 03:28:34;;;;;;;3.70;1.40;;;;;;;27.16;37.20;101308.22;5093302;28;20097;-49
2022/08/28 03:31:03;;;;;;;4.43;1.65;;;;;;;27.11;37.25;101308.22;5075090;28;20028;-51
2022/08/28 03:33:31;;;;;;;3.70;1.33;;;;;;;27.13;37.21;101297.66;5093172;28;20024;-51
2022/08/28 03:35:59;;;;;;;7.25;1.55;;;;;;;27.12;37.36;101307.34;5092657;28;20028;-49
2022/08/28 03:38:27;;;;;;;5.40;1.73;;;;;;;27.10;37.18;101305.53;5093203;28;20100;-47
2022/08/28 03:40:56;;;;;;;4.32;1.83;;;;;;;27.14;37.11;101307.34;5093122;28;20165;-47
2022/08/28 03:43:26;;;;;;;4.45;1.67;;;;;;;27.10;37.27;101306.44;5092858;28;20027;-49
2022/08/28 03:45:59;;;;;;;4.15;1.70;;;;;;;27.10;37.07;101310.81;5092916;28;20024;-47
2022/08/28 03:48:30;;;;;;;3.55;1.40;;;;;;;27.11;37.06;101308.22;5093225;28;20393;-48
2022/08/28 03:50:58;;;;;;;3.20;1.30;;;;;;;27.07;37.19;101306.41;5093040;28;20369;-48
2022/08/28 03:53:28;;;;;;;4.20;1.60;;;;;;;27.12;37.11;101309.97;5093044;28;20020;-47
2022/08/28 03:55:58;;;;;;;4.65;1.65;;;;;;;27.07;37.50;101306.41;5092800;28;20377;-51
2022/08/28 03:58:27;;;;;;;3.58;1.42;;;;;;;27.07;37.04;101310.78;5074693;28;20047;-52
2022/08/28 04:00:56;;;;;;;7.68;1.45;;;;;;;27.11;37.09;101313.47;5074355;28;20035;-50
2022/08/28 04:03:24;;;;;;;4.70;1.63;;;;;;;27.06;37.60;101320.47;5092701;28;20093;-49
2022/08/28 04:05:53;;;;;;;4.78;1.80;;;;;;;27.03;37.17;101323.06;5092569;28;20367;-48
2022/08/28 04:08:22;;;;;;;5.80;1.40;;;;;;;26.99;37.25;101321.28;5092841;28;20518;-47
2022/08/28 04:10:51;;;;;;;4.15;1.60;;;;;;;26.99;37.25;101305.47;5093109;28;20534;-51
2022/08/28 04:13:21;;;;;;;4.05;1.63;;;;;;;27.04;37.20;101318.69;5092892;28;20111;-47
2022/08/28 04:16:00;;;;;;;4.05;1.50;;;;;;;27.03;37.05;101323.06;5092887;28;20051;-48
2022/08/28 04:18:29;;;;;;;4.75;1.40;;;;;;;26.96;37.05;101318.66;5092794;28;20036;-49
2022/08/28 04:21:01;;;;;;;3.13;1.40;;;;;;;26.87;37.25;101314.22;5074755;28;20028;-48
2022/08/28 04:23:29;;;;;;;5.75;1.30;;;;;;;26.97;37.22;101323.06;5093012;28;20090;-47
2022/08/28 04:25:58;;;;;;;3.80;1.48;;;;;;;26.97;37.17;101321.28;5092557;28;20028;-49
2022/08/28 04:28:27;;;;;;;4.25;1.77;;;;;;;26.96;37.56;101322.16;5092701;28;20028;-48
2022/08/28 04:30:55;;;;;;;3.42;1.58;;;;;;;26.93;37.24;101322.13;5061986;28;20093;-49
2022/08/28 04:33:25;;;;;;;6.40;1.52;;;;;;;26.95;37.28;101317.75;5096428;28;20116;-47
2022/08/28 04:35:54;;;;;;;4.82;1.60;;;;;;;26.94;37.26;101323.03;5095664;28;20032;-47
2022/08/28 04:38:23;;;;;;;5.25;1.73;;;;;;;26.94;37.41;101323.91;5078471;28;20529;-46
2022/08/28 04:40:52;;;;;;;3.47;1.40;;;;;;;26.92;37.47;101319.50;5078078;28;20144;-47
2022/08/28 04:43:20;;;;;;;2.70;1.50;;;;;;;26.90;37.46;101318.59;5096221;28;20035;-47
2022/08/28 04:45:49;;;;;;;5.40;2.08;;;;;;;26.97;37.36;101321.28;5078558;28;20401;-47
2022/08/28 04:48:18;;;;;;;9.05;1.80;;;;;;;26.92;37.37;101316.88;5096205;28;20025;-47
2022/08/28 04:50:50;;;;;;;5.78;1.55;;;;;;;26.90;37.12;101321.25;5096084;28;20080;-46
2022/08/28 04:53:20;;;;;;;2.70;1.42;;;;;;;26.96;37.36;101323.91;5096000;28;20028;-47
2022/08/28 04:55:51;;;;;;;1.42;1.05;;;;;;;26.94;37.29;101317.75;5095897;28;20024;-46
2022/08/28 04:58:21;;;;;;;4.90;1.45;;;;;;;26.98;37.05;101316.88;5096067;28;20052;-47
2022/08/28 05:00:50;;;;;;;4.43;1.40;;;;;;;26.92;37.28;101309.84;5077762;28;20485;-48
2022/08/28 05:03:19;;;;;;;5.05;1.52;;;;;;;26.87;37.23;101314.22;5095750;28;20020;-51
2022/08/28 05:05:49;;;;;;;3.10;1.27;;;;;;;26.90;37.37;101314.22;5095766;28;20027;-47
2022/08/28 05:08:19;;;;;;;3.83;1.50;;;;;;;26.91;37.39;101323.00;5061401;28;20159;-48
2022/08/28 05:10:48;;;;;;;2.63;1.30;;;;;;;26.81;37.57;101319.44;5095775;28;20039;-50
2022/08/28 05:13:18;;;;;;;4.00;1.90;;;;;;;26.85;37.34;101318.59;5095634;28;20102;-48
2022/08/28 05:15:48;;;;;;;3.45;1.40;;;;;;;26.86;37.34;101322.97;5095743;28;20055;-50
2022/08/28 05:18:18;;;;;;;3.05;1.50;;;;;;;26.85;37.37;101323.84;5095440;28;20027;-52
2022/08/28 05:20:48;;;;;;;4.38;1.90;;;;;;;26.89;37.48;101317.72;5094905;28;20047;-47
2022/08/28 05:23:17;;;;;;;3.13;1.30;;;;;;;26.88;37.26;101322.97;5095724;28;20031;-51
2022/08/28 05:25:47;;;;;;;3.92;1.73;;;;;;;26.87;37.54;101318.59;5095380;28;20497;-47
2022/08/28 05:28:17;;;;;;;4.47;1.40;;;;;;;26.86;37.36;101320.34;5095458;28;20032;-50
2022/08/28 05:30:45;;;;;;;4.18;2.00;;;;;;;26.81;37.14;101320.28;5095002;28;20089;-50
2022/08/28 05:33:15;;;;;;;3.00;1.38;;;;;;;26.79;37.62;101327.31;5095092;28;20376;-49
2022/08/28 05:35:45;;;;;;;3.35;1.45;;;;;;;26.79;37.69;101332.59;5094879;28;20028;-50
2022/08/28 05:38:15;;;;;;;4.32;1.73;;;;;;;26.82;37.72;101337.84;5094861;28;20070;-51
2022/08/28 05:40:46;;;;;;;3.22;1.83;;;;;;;26.85;37.44;101344.91;5094239;28;20028;-51
2022/08/28 05:43:17;;;;;;;3.67;1.70;;;;;;;26.82;37.46;101343.13;5094889;28;20085;-50
2022/08/28 05:45:45;;;;;;;3.10;1.48;;;;;;;26.88;37.51;101349.31;5094629;28;20028;-51
2022/08/28 05:48:14;;;;;;;3.03;1.63;;;;;;;26.78;37.58;101353.59;5094828;28;20038;-49
2022/08/28 05:50:43;;;;;;;4.93;1.55;;;;;;;26.79;37.65;101348.38;5095142;28;20024;-50
2022/08/28 05:53:12;;;;;;;7.57;1.88;;;;;;;26.76;37.78;101353.59;5094480;28;20051;-49
2022/08/28 05:55:41;;;;;;;7.47;1.77;;;;;;;26.80;37.49;101347.53;5094587;28;20547;-49
2022/08/28 05:58:32;;;;;;;4.63;2.00;;;;;;;26.73;37.65;101360.56;5094644;28;20117;-50
2022/08/28 06:01:06;;;;;;;4.75;1.60;;;;;;;26.67;37.89;101356.13;5094229;28;20028;-51
2022/08/28 06:03:53;;;;;;;2.28;1.30;;;;;;;26.71;37.87;101362.31;5093353;28;20030;-49
2022/08/28 06:06:23;;;;;;;4.57;1.73;;;;;;;26.75;37.73;101354.47;5094450;28;20028;-51
2022/08/28 06:09:01;;;;;;;6.57;1.85;;;;;;;26.72;37.80;101362.31;5094223;28;20107;-47
2022/08/28 06:11:30;;;;;;;3.35;1.52;;;;;;;26.74;37.79;101368.47;5094190;28;20107;-50
2022/08/28 06:14:00;;;;;;;3.42;1.35;;;;;;;26.79;37.48;101363.25;5094498;28;20024;-50
2022/08/28 06:16:29;;;;;;;3.97;1.63;;;;;;;26.79;37.63;101363.25;5094443;28;20070;-50
2022/08/28 06:18:57;;;;;;;3.47;1.85;;;;;;;26.74;37.53;101363.22;5094511;28;20028;-52
2022/08/28 06:21:26;;;;;;;3.20;1.45;;;;;;;26.73;37.74;101371.97;5093848;28;20054;-46
2022/08/28 06:23:55;;;;;;;4.15;1.55;;;;;;;26.75;37.85;101375.50;5094109;28;20023;-47
2022/08/28 06:26:22;;;;;;;2.28;1.40;;;;;;;26.74;37.79;101370.22;5094161;28;20090;-47
2022/08/28 06:28:52;;;;;;;2.72;1.20;;;;;;;26.76;37.78;101374.66;5093511;28;20089;-48
2022/08/28 06:31:20;;;;;;;2.40;1.45;;;;;;;26.75;37.44;101364.97;5093864;28;20028;-48
2022/08/28 06:33:49;;;;;;;3.90;1.83;;;;;;;26.76;37.44;101368.47;5094297;28;20093;-49
2022/08/28 06:36:17;;;;;;;3.30;1.67;;;;;;;26.78;37.70;101361.47;5093776;28;20028;-48
2022/08/28 06:38:46;;;;;;;4.90;2.10;;;;;;;26.80;37.52;101372.94;5093537;28;20110;-48
2022/08/28 06:41:15;;;;;;;3.83;1.85;;;;;;;26.64;37.77;101357.00;5094044;28;20020;-48
2022/08/28 06:43:43;;;;;;;4.05;1.40;;;;;;;26.74;37.63;101370.22;5093622;28;20085;-50
2022/08/28 06:46:12;;;;;;;3.38;1.55;;;;;;;26.78;37.60;101375.53;5075809;28;20492;-49
2022/08/28 06:48:40;;;;;;;2.28;1.58;;;;;;;26.83;37.67;101371.19;5093757;28;20027;-47
2022/08/28 06:51:11;;;;;;;5.45;1.80;;;;;;;26.74;37.42;101347.44;5093717;28;20032;-47
2022/08/28 06:53:40;;;;;;;3.03;1.40;;;;;;;26.84;37.68;101366.84;5074847;28;20035;-47
2022/08/28 06:56:13;;;;;;;3.15;1.17;;;;;;;26.81;37.71;101374.69;5093766;28;20396;-47
2022/08/28 06:58:44;;;;;;;5.05;1.50;;;;;;;26.80;37.74;101376.47;5092689;28;20071;-47
2022/08/28 07:01:16;;;;;;;3.40;1.23;;;;;;;26.82;37.86;101379.97;5093530;28;20085;-46
2022/08/28 07:03:46;;;;;;;3.20;1.38;;;;;;;26.68;37.67;101361.44;5075057;28;20440;-46
2022/08/28 07:06:15;;;;;;;2.78;1.25;;;;;;;26.80;37.79;101387.00;5093278;28;20107;-48
2022/08/28 07:08:44;;;;;;;5.72;1.60;;;;;;;26.81;37.67;101386.09;5093549;28;20024;-48
2022/08/28 07:11:22;;;;;;;3.97;1.60;;;;;;;26.80;37.90;101391.38;5093507;28;20040;-49
2022/08/28 07:13:51;;;;;;;3.53;1.35;;;;;;;26.81;37.98;101386.09;5075289;28;20032;-50
2022/08/28 07:16:21;;;;;;;6.22;1.50;;;;;;;26.85;37.51;101389.66;5074775;28;20028;-48
2022/08/28 07:18:50;;;;;;;4.78;1.52;;;;;;;26.82;37.98;101393.13;5092933;28;20051;-51
2022/08/28 07:21:19;;;;;;;4.70;1.60;;;;;;;26.86;37.64;101388.78;5093162;28;20027;-48
2022/08/28 07:23:47;;;;;;;8.77;1.63;;;;;;;26.86;37.90;101387.88;5093194;28;20107;-51
2022/08/28 07:26:19;;;;;;;2.67;1.20;;;;;;;26.86;37.98;101395.78;5093401;28;20307;-50
2022/08/28 07:28:48;;;;;;;7.90;1.67;;;;;;;26.78;37.94;101395.69;5075439;28;20020;-47
2022/08/28 07:31:21;;;;;;;3.50;1.40;;;;;;;26.86;38.07;101398.41;5092904;28;20024;-47
2022/08/28 07:33:50;;;;;;;4.28;1.48;;;;;;;26.82;38.14;101397.53;5093206;28;20089;-51
2022/08/28 07:36:21;;;;;;;5.63;1.80;;;;;;;26.86;37.90;101399.31;5092918;28;20465;-49
2022/08/28 07:38:50;;;;;;;3.33;1.90;;;;;;;26.83;37.98;101404.56;5092849;28;20488;-51
2022/08/28 07:41:22;;;;;;;6.35;1.40;;;;;;;26.84;37.89;101398.44;5092890;28;20027;-51
2022/08/28 07:46:39;;;;;;;2.33;1.23;;;;;;;26.96;37.77;101409.03;5084688;28;20032;-48
2022/08/28 07:49:08;;;;;;;5.55;1.70;;;;;;;26.93;37.83;101400.25;5075121;28;20016;-47
2022/08/28 07:51:37;;;;;;;3.92;1.88;;;;;;;26.94;37.84;101410.78;5074851;28;20040;-48
2022/08/28 07:54:05;;;;;;;5.65;1.73;;;;;;;26.96;38.04;101403.78;5075564;28;20022;-49
2022/08/28 07:56:39;;;;;;;3.30;1.58;;;;;;;27.02;37.96;101402.06;5092785;28;20043;-49
2022/08/28 07:59:09;;;;;;;8.43;1.52;;;;;;;27.06;37.88;101394.19;5092583;28;20156;-48
2022/08/28 08:01:40;;;;;;;4.40;1.55;;;;;;;27.09;38.04;101393.31;5092912;28;20487;-47
2022/08/28 08:04:11;;;;;;;4.32;1.55;;;;;;;27.05;38.22;101395.06;5093640;28;20020;-47
2022/08/28 08:06:41;;;;;;;4.57;1.40;;;;;;;27.09;37.96;101393.31;5096715;28;20125;-48
2022/08/28 08:09:12;;;;;;;4.22;1.73;;;;;;;27.11;38.04;101402.09;5096582;28;20023;-47
2022/08/28 08:11:40;;;;;;;3.45;1.30;;;;;;;27.09;37.75;101393.31;5096734;28;20385;-48
2022/08/28 08:14:08;;;;;;;2.95;1.42;;;;;;;27.11;37.89;101402.09;5078742;28;20016;-50
2022/08/28 08:16:40;;;;;;;4.63;1.60;;;;;;;27.23;37.57;101409.22;5096746;28;20135;-47
2022/08/28 08:19:09;;;;;;;3.22;1.40;;;;;;;27.30;37.21;101405.75;5078450;28;20034;-48
2022/08/28 08:21:38;;;;;;;2.88;1.33;;;;;;;27.21;37.25;101403.94;5096897;28;20477;-50
2022/08/28 08:24:07;;;;;;;5.20;1.70;;;;;;;27.26;36.96;101396.94;5096659;28;20050;-49
2022/08/28 08:26:36;;;;;;;4.35;1.20;;;;;;;27.25;36.92;101412.75;5096616;28;20016;-47
2022/08/28 08:29:05;;;;;;;3.58;1.23;;;;;;;27.25;36.85;101403.06;5096202;28;20395;-49
2022/08/28 08:31:34;;;;;;;2.65;1.45;;;;;;;27.29;36.82;101410.13;5096270;28;20024;-49
2022/08/28 08:34:04;;;;;;;2.75;1.20;;;;;;;27.27;36.84;101403.97;5096413;28;20019;-47
2022/08/28 08:36:34;;;;;;;5.22;1.40;;;;;;;27.23;36.80;101412.72;5096272;28;20473;-49
2022/08/28 08:39:04;;;;;;;3.78;1.50;;;;;;;27.19;36.88;101410.97;5096048;28;20133;-48
2022/08/28 08:41:38;;;;;;;3.78;1.20;;;;;;;27.23;36.81;101409.22;5096409;28;20028;-49
2022/08/28 08:44:22;;;;;;;4.22;1.30;;;;;;;27.25;36.81;101418.00;5095817;28;20085;-48
2022/08/28 08:46:58;;;;;;;3.33;1.50;;;;;;;27.22;36.81;101418.00;5078169;28;20032;-51
2022/08/28 08:49:31;;;;;;;3.90;1.58;;;;;;;27.25;36.86;101421.50;5078089;28;20032;-48
2022/08/28 08:52:05;;;;;;;4.38;1.63;;;;;;;27.25;36.84;101428.53;5096176;28;20111;-50
2022/08/28 08:54:33;;;;;;;4.20;1.67;;;;;;;27.32;36.72;101425.06;5096006;28;20028;-47
2022/08/28 08:57:03;;;;;;;3.65;1.23;;;;;;;27.29;36.68;101425.94;5095777;28;20547;-48
2022/08/28 08:59:37;;;;;;;3.65;1.55;;;;;;;27.28;36.66;101425.94;5095746;28;20542;-49
2022/08/28 09:02:18;;;;;;;4.18;1.80;;;;;;;27.25;36.43;101429.41;5078504;28;20112;-48
2022/08/28 09:05:08;;;;;;;4.32;1.38;;;;;;;27.31;36.42;101428.56;5095959;28;20024;-46
2022/08/28 09:07:41;;;;;;;3.50;1.58;;;;;;;27.33;36.45;101421.56;5077742;28;20024;-47
2022/08/28 09:10:11;;;;;;;2.92;1.13;;;;;;;27.34;36.42;101425.09;5060517;28;20465;-48
2022/08/28 09:13:06;;;;;;;4.07;1.17;;;;;;;27.27;36.58;101416.28;5095618;28;20131;-49
2022/08/28 09:15:40;;;;;;;3.60;1.35;;;;;;;27.28;36.69;101423.31;5083648;28;20035;-48
2022/08/28 09:18:22;;;;;;;4.28;1.63;;;;;;;27.30;36.59;101418.94;5095552;28;20624;-48
2022/08/28 09:20:52;;;;;;;4.60;1.55;;;;;;;27.34;36.55;101433.88;5095516;28;20024;-47
2022/08/28 09:23:22;;;;;;;3.75;1.58;;;;;;;27.26;36.65;101419.78;5095394;28;20030;-50
2022/08/28 09:26:12;;;;;;;6.63;1.58;;;;;;;27.26;36.50;101425.03;5094869;28;20111;-51
2022/08/28 09:28:43;;;;;;;2.70;1.45;;;;;;;27.30;36.32;101438.25;5070598;28;20032;-48
2022/08/28 09:31:16;;;;;;;2.58;1.30;;;;;;;27.27;36.30;101429.44;5095284;28;20381;-50
2022/08/28 09:33:47;;;;;;;4.18;1.73;;;;;;;27.33;36.23;101436.50;5077413;28;20056;-48
2022/08/28 09:36:35;;;;;;;5.43;1.40;;;;;;;27.32;35.97;101437.38;5095072;28;20048;-49
2022/08/28 09:39:05;;;;;;;2.03;1.23;;;;;;;27.34;35.96;101431.22;5094612;28;20028;-51
2022/08/28 09:44:23;;;;;;;4.53;1.80;;;;;;;27.32;36.15;101418.94;5083515;28;20061;-48
2022/08/28 09:46:52;;;;;;;2.30;1.15;;;;;;;27.37;36.05;101435.66;5076804;28;20024;-48
2022/08/28 09:49:40;;;;;;;4.07;1.40;;;;;;;27.35;36.17;101425.09;5094701;28;20038;-49
2022/08/28 09:52:20;;;;;;;4.22;1.33;;;;;;;27.40;35.93;101438.28;5076939;28;20024;-47
2022/08/28 09:54:49;;;;;;;4.90;1.80;;;;;;;27.38;35.78;101437.41;5094605;28;20025;-50
2022/08/28 09:57:18;;;;;;;5.93;1.38;;;;;;;27.36;36.08;101440.03;5095099;28;20052;-47
2022/08/28 09:59:46;;;;;;;4.97;1.00;;;;;;;27.39;35.98;101461.13;5094723;28;20380;-50
2022/08/28 10:02:37;;;;;;;6.97;1.60;;;;;;;27.41;35.89;101451.47;5076639;28;20100;-49
2022/08/28 10:05:15;;;;;;;8.23;1.45;;;;;;;27.48;35.69;101451.53;5094319;28;20035;-47
2022/08/28 10:07:56;;;;;;;2.85;1.45;;;;;;;27.38;35.74;101438.28;5094450;28;20480;-46
2022/08/28 10:10:41;;;;;;;5.55;1.73;;;;;;;27.51;35.50;101451.56;5076801;28;20024;-47
2022/08/28 10:13:14;;;;;;;3.72;1.48;;;;;;;27.48;35.60;101443.63;5076371;28;20072;-47
2022/08/28 10:16:02;;;;;;;3.40;1.55;;;;;;;27.52;35.55;101450.69;5094775;28;20084;-46
2022/08/28 10:18:49;;;;;;;3.47;1.30;;;;;;;27.52;35.60;101451.59;5084333;28;20042;-47
2022/08/28 10:21:21;;;;;;;8.60;1.73;;;;;;;27.54;35.22;101448.94;5083471;28;20382;-50
2022/08/28 10:24:08;;;;;;;4.55;1.80;;;;;;;27.54;35.43;101446.31;5075767;28;20473;-47
2022/08/28 10:27:15;;;;;;;4.97;1.90;;;;;;;27.59;35.33;101444.59;5084725;28;20039;-49
2022/08/28 10:30:07;;;;;;;3.65;1.50;;;;;;;27.57;35.62;101452.47;5087102;28;20032;-47
2022/08/28 10:32:48;;;;;;;3.30;1.65;;;;;;;27.57;35.46;101441.06;5093900;28;20037;-46
2022/08/28 10:35:22;;;;;;;2.22;1.10;;;;;;;27.62;35.70;101439.34;5094210;28;20069;-47
2022/08/28 10:38:20;;;;;;;3.95;1.55;;;;;;;27.61;35.56;101442.84;5076482;28;20090;-49
2022/08/28 10:40:55;;;;;;;4.32;1.30;;;;;;;27.60;35.60;101436.69;5094175;28;20115;-47
2022/08/28 10:43:32;;;;;;;;;;;;;;;27.62;36.00;101444.59;5094842;28;20024;-46
2022/08/28 10:46:06;;;;;;;5.35;1.90;;;;;;;27.66;35.70;101425.28;5076090;28;19969;-49
2022/08/28 10:48:43;;;;;;;2.70;1.20;;;;;;;27.64;35.67;101440.19;5075770;28;20028;-48
2022/08/28 10:51:34;;;;;;;5.00;1.77;;;;;;;27.65;35.44;101433.19;5093616;28;20481;-46
2022/08/28 10:54:08;;;;;;;2.67;1.30;;;;;;;27.76;35.26;101436.75;5093831;28;20048;-48
2022/08/28 10:56:43;;;;;;;3.92;1.58;;;;;;;27.84;34.60;101455.22;5075361;28;20465;-49
2022/08/28 10:59:12;;;;;;;3.03;1.35;;;;;;;27.87;34.56;101440.34;5075748;28;20074;-50
2022/08/28 11:01:41;;;;;;;4.70;1.75;;;;;;;27.85;34.33;101442.06;5093519;28;20485;-50
2022/08/28 11:04:17;;;;;;;5.03;1.30;;;;;;;27.82;34.25;101452.59;5093669;28;20024;-48
2022/08/28 11:06:53;;;;;;;4.63;1.50;;;;;;;27.80;33.92;101448.22;5076024;28;20465;-46
2022/08/28 11:09:44;;;;;;;5.03;1.33;;;;;;;27.85;34.40;101444.72;5093385;28;20396;-47
2022/08/28 11:12:17;;;;;;;8.55;1.30;;;;;;;27.93;34.12;101451.75;5066529;28;20145;-48
2022/08/28 11:14:48;;;;;;;4.15;1.15;;;;;;;27.98;34.21;101442.13;5093659;28;20039;-47
2022/08/28 11:17:26;;;;;;;3.35;1.33;;;;;;;27.94;34.35;101443.88;5075509;28;20081;-46
2022/08/28 11:20:14;;;;;;;3.78;1.50;;;;;;;27.97;34.41;101435.06;5092822;28;20032;-49
2022/08/28 11:22:47;;;;;;;5.28;1.85;;;;;;;28.07;33.46;101425.44;5075126;28;20028;-48
2022/08/28 11:25:18;;;;;;;4.68;1.27;;;;;;;28.09;33.30;101435.09;5075318;28;20077;-50
2022/08/28 11:28:24;;;;;;;2.30;1.15;;;;;;;28.11;33.42;101437.81;5093407;28;20028;-48
2022/08/28 11:31:01;;;;;;;6.50;1.63;;;;;;;28.12;33.43;101442.19;5075175;28;20465;-47
2022/08/28 11:33:51;;;;;;;4.72;1.52;;;;;;;28.16;33.20;101431.66;5093229;28;20527;-46
2022/08/28 11:36:20;;;;;;;2.92;1.00;;;;;;;28.18;32.48;101439.56;5092966;28;20032;-47
2022/08/28 11:38:54;;;;;;;3.17;1.00;;;;;;;28.19;33.39;101438.69;5093489;28;20385;-52
2022/08/28 11:41:35;;;;;;;2.50;1.40;;;;;;;28.15;33.23;101436.91;5097493;28;20031;-51
2022/08/28 11:44:12;;;;;;;4.15;1.67;;;;;;;28.24;32.87;101436.06;5097530;28;20057;-49
2022/08/28 11:46:47;;;;;;;2.60;1.10;;;;;;;28.30;32.45;101438.72;5097277;28;20134;-47
2022/08/28 11:49:25;;;;;;;2.92;1.17;;;;;;;28.34;32.92;101446.63;5097104;28;20085;-48
2022/08/28 11:52:02;;;;;;;6.22;1.30;;;;;;;28.31;32.46;101445.75;5097388;28;20031;-49
2022/08/28 11:54:47;;;;;;;2.97;1.27;;;;;;;28.38;31.86;101436.09;5097111;28;20488;-49